sensor_id;sensor_type;location;lat;lon;timestamp;P1;durP1;ratioP1;P2;durP2;ratioP2
77944;SDS011;67142;47.404;-1.384;2023-06-05T00:02:17;616.50;;;229.48;;
77944;SDS011;67142;47.404;-1.384;2023-06-05T00:04:43;612.47;;;228.98;;
77944;SDS011;67142;47.404;-1.384;2023-06-05T00:07:09;611.00;;;227.98;;
77944;SDS011;67142;47.404;-1.384;2023-06-05T00:09:35;624.73;;;234.70;;
77944;SDS011;67142;47.404;-1.384;2023-06-05T00:12:01;632.47;;;238.45;;
77944;SDS011;67142;47.404;-1.384;2023-06-05T00:14:27;631.22;;;238.77;;
77944;SDS011;67142;47.404;-1.384;2023-06-05T00:16:53;635.35;;;240.57;;
77944;SDS011;67142;47.404;-1.384;2023-06-05T00:19:21;649.53;;;246.23;;
77944;SDS011;67142;47.404;-1.384;2023-06-05T00:21:47;643.43;;;244.73;;
77944;SDS011;67142;47.404;-1.384;2023-06-05T00:24:15;644.90;;;245.80;;
77944;SDS011;67142;47.404;-1.384;2023-06-05T00:26:41;638.80;;;242.38;;
77944;SDS011;67142;47.404;-1.384;2023-06-05T00:31:33;636.08;;;244.55;;
77944;SDS011;67142;47.404;-1.384;2023-06-05T00:33:59;635.92;;;242.77;;
77944;SDS011;67142;47.404;-1.384;2023-06-05T00:36:25;629.97;;;238.93;;
77944;SDS011;67142;47.404;-1.384;2023-06-05T00:38:53;632.85;;;239.88;;
77944;SDS011;67142;47.404;-1.384;2023-06-05T00:41:19;628.40;;;238.20;;
77944;SDS011;67142;47.404;-1.384;2023-06-05T00:43:46;636.30;;;242.85;;
77944;SDS011;67142;47.404;-1.384;2023-06-05T00:46:12;632.83;;;240.35;;
77944;SDS011;67142;47.404;-1.384;2023-06-05T00:48:38;645.77;;;244.70;;
77944;SDS011;67142;47.404;-1.384;2023-06-05T00:51:06;641.75;;;244.65;;
77944;SDS011;67142;47.404;-1.384;2023-06-05T00:53:35;636.38;;;241.32;;
77944;SDS011;67142;47.404;-1.384;2023-06-05T00:56:01;636.33;;;241.77;;
77944;SDS011;67142;47.404;-1.384;2023-06-05T00:58:28;634.30;;;241.13;;
77944;SDS011;67142;47.404;-1.384;2023-06-05T01:00:54;638.73;;;242.47;;
77944;SDS011;67142;47.404;-1.384;2023-06-05T01:03:21;640.85;;;244.18;;
77944;SDS011;67142;47.404;-1.384;2023-06-05T01:05:48;643.60;;;243.25;;
77944;SDS011;67142;47.404;-1.384;2023-06-05T01:08:14;636.83;;;241.88;;
77944;SDS011;67142;47.404;-1.384;2023-06-05T01:10:42;631.50;;;237.85;;
77944;SDS011;67142;47.404;-1.384;2023-06-05T01:13:15;634.13;;;240.27;;
77944;SDS011;67142;47.404;-1.384;2023-06-05T01:15:43;639.70;;;242.00;;
77944;SDS011;67142;47.404;-1.384;2023-06-05T01:18:09;637.00;;;240.35;;
77944;SDS011;67142;47.404;-1.384;2023-06-05T01:20:36;642.67;;;245.38;;
77944;SDS011;67142;47.404;-1.384;2023-06-05T01:23:05;639.38;;;243.05;;
77944;SDS011;67142;47.404;-1.384;2023-06-05T01:25:31;640.73;;;244.73;;
77944;SDS011;67142;47.404;-1.384;2023-06-05T01:30:31;630.30;;;238.63;;
77944;SDS011;67142;47.404;-1.384;2023-06-05T01:33:01;626.38;;;237.45;;
77944;SDS011;67142;47.404;-1.384;2023-06-05T01:35:29;625.55;;;236.75;;
77944;SDS011;67142;47.404;-1.384;2023-06-05T01:37:58;627.53;;;237.90;;
77944;SDS011;67142;47.404;-1.384;2023-06-05T01:40:24;629.67;;;239.90;;
77944;SDS011;67142;47.404;-1.384;2023-06-05T01:42:52;623.92;;;236.85;;
77944;SDS011;67142;47.404;-1.384;2023-06-05T01:45:18;622.20;;;235.93;;
77944;SDS011;67142;47.404;-1.384;2023-06-05T01:47:44;612.13;;;231.73;;
77944;SDS011;67142;47.404;-1.384;2023-06-05T01:50:14;623.80;;;237.17;;
77944;SDS011;67142;47.404;-1.384;2023-06-05T01:52:41;620.05;;;235.55;;
77944;SDS011;67142;47.404;-1.384;2023-06-05T01:55:14;604.28;;;228.45;;
77944;SDS011;67142;47.404;-1.384;2023-06-05T01:57:41;602.42;;;227.52;;
77944;SDS011;67142;47.404;-1.384;2023-06-05T02:00:08;592.20;;;222.20;;
77944;SDS011;67142;47.404;-1.384;2023-06-05T02:02:44;594.10;;;223.80;;
77944;SDS011;67142;47.404;-1.384;2023-06-05T02:05:12;591.30;;;222.27;;
77944;SDS011;67142;47.404;-1.384;2023-06-05T02:07:39;479.85;;;166.25;;
77944;SDS011;67142;47.404;-1.384;2023-06-05T02:10:06;471.85;;;165.82;;
77944;SDS011;67142;47.404;-1.384;2023-06-05T02:12:32;524.53;;;189.35;;
77944;SDS011;67142;47.404;-1.384;2023-06-05T02:14:59;565.70;;;210.43;;
77944;SDS011;67142;47.404;-1.384;2023-06-05T02:17:25;566.72;;;210.75;;
77944;SDS011;67142;47.404;-1.384;2023-06-05T02:19:51;587.13;;;222.10;;
77944;SDS011;67142;47.404;-1.384;2023-06-05T02:22:17;583.25;;;219.50;;
77944;SDS011;67142;47.404;-1.384;2023-06-05T02:24:44;582.38;;;218.20;;
77944;SDS011;67142;47.404;-1.384;2023-06-05T02:27:10;579.10;;;216.30;;
77944;SDS011;67142;47.404;-1.384;2023-06-05T02:29:37;570.80;;;212.40;;
77944;SDS011;67142;47.404;-1.384;2023-06-05T02:32:04;591.75;;;223.15;;
77944;SDS011;67142;47.404;-1.384;2023-06-05T02:34:31;593.33;;;224.25;;
77944;SDS011;67142;47.404;-1.384;2023-06-05T02:36:57;609.63;;;230.98;;
77944;SDS011;67142;47.404;-1.384;2023-06-05T02:39:23;612.23;;;231.90;;
77944;SDS011;67142;47.404;-1.384;2023-06-05T02:41:50;608.15;;;230.40;;
77944;SDS011;67142;47.404;-1.384;2023-06-05T02:44:17;608.67;;;231.73;;
77944;SDS011;67142;47.404;-1.384;2023-06-05T02:46:43;608.28;;;230.65;;
77944;SDS011;67142;47.404;-1.384;2023-06-05T02:49:09;609.47;;;231.70;;
77944;SDS011;67142;47.404;-1.384;2023-06-05T02:51:35;614.27;;;235.03;;
77944;SDS011;67142;47.404;-1.384;2023-06-05T02:54:01;609.28;;;232.23;;
77944;SDS011;67142;47.404;-1.384;2023-06-05T02:56:27;606.83;;;230.38;;
77944;SDS011;67142;47.404;-1.384;2023-06-05T02:58:54;608.60;;;231.57;;
77944;SDS011;67142;47.404;-1.384;2023-06-05T03:01:21;608.30;;;231.85;;
77944;SDS011;67142;47.404;-1.384;2023-06-05T03:03:47;613.10;;;233.67;;
77944;SDS011;67142;47.404;-1.384;2023-06-05T03:06:14;609.45;;;216.13;;
77944;SDS011;67142;47.404;-1.384;2023-06-05T03:08:43;623.60;;;230.05;;
77944;SDS011;67142;47.404;-1.384;2023-06-05T03:11:09;622.60;;;232.63;;
77944;SDS011;67142;47.404;-1.384;2023-06-05T03:13:35;624.90;;;234.93;;
77944;SDS011;67142;47.404;-1.384;2023-06-05T03:16:01;622.33;;;236.70;;
77944;SDS011;67142;47.404;-1.384;2023-06-05T03:18:27;623.70;;;236.97;;
77944;SDS011;67142;47.404;-1.384;2023-06-05T03:20:54;627.55;;;239.57;;
77944;SDS011;67142;47.404;-1.384;2023-06-05T03:25:49;629.08;;;243.55;;
77944;SDS011;67142;47.404;-1.384;2023-06-05T03:28:16;620.45;;;237.95;;
77944;SDS011;67142;47.404;-1.384;2023-06-05T03:30:42;622.80;;;237.70;;
77944;SDS011;67142;47.404;-1.384;2023-06-05T03:33:09;629.88;;;241.25;;
77944;SDS011;67142;47.404;-1.384;2023-06-05T03:35:35;624.42;;;239.48;;
77944;SDS011;67142;47.404;-1.384;2023-06-05T03:38:01;623.63;;;240.32;;
77944;SDS011;67142;47.404;-1.384;2023-06-05T03:40:27;621.35;;;238.02;;
77944;SDS011;67142;47.404;-1.384;2023-06-05T03:42:54;622.57;;;239.47;;
77944;SDS011;67142;47.404;-1.384;2023-06-05T03:45:20;625.08;;;240.13;;
77944;SDS011;67142;47.404;-1.384;2023-06-05T03:47:47;604.13;;;214.73;;
77944;SDS011;67142;47.404;-1.384;2023-06-05T03:50:14;602.58;;;222.48;;
77944;SDS011;67142;47.404;-1.384;2023-06-05T03:52:42;597.33;;;222.18;;
77944;SDS011;67142;47.404;-1.384;2023-06-05T03:55:08;599.92;;;226.13;;
77944;SDS011;67142;47.404;-1.384;2023-06-05T03:57:38;593.87;;;222.97;;
77944;SDS011;67142;47.404;-1.384;2023-06-05T04:00:05;599.03;;;226.82;;
77944;SDS011;67142;47.404;-1.384;2023-06-05T04:02:35;596.30;;;227.63;;
77944;SDS011;67142;47.404;-1.384;2023-06-05T04:05:02;595.67;;;227.75;;
77944;SDS011;67142;47.404;-1.384;2023-06-05T04:07:28;596.35;;;226.15;;
77944;SDS011;67142;47.404;-1.384;2023-06-05T04:09:55;593.03;;;225.97;;
77944;SDS011;67142;47.404;-1.384;2023-06-05T04:12:21;593.50;;;227.27;;
77944;SDS011;67142;47.404;-1.384;2023-06-05T04:14:47;590.55;;;225.27;;
77944;SDS011;67142;47.404;-1.384;2023-06-05T04:17:13;592.03;;;226.27;;
77944;SDS011;67142;47.404;-1.384;2023-06-05T04:19:40;589.90;;;227.10;;
77944;SDS011;67142;47.404;-1.384;2023-06-05T04:22:06;587.57;;;224.60;;
77944;SDS011;67142;47.404;-1.384;2023-06-05T04:24:32;587.90;;;225.30;;
77944;SDS011;67142;47.404;-1.384;2023-06-05T04:26:58;588.90;;;225.77;;
77944;SDS011;67142;47.404;-1.384;2023-06-05T04:29:26;580.75;;;219.80;;
77944;SDS011;67142;47.404;-1.384;2023-06-05T04:31:52;585.63;;;224.55;;
77944;SDS011;67142;47.404;-1.384;2023-06-05T04:34:19;582.40;;;223.80;;
77944;SDS011;67142;47.404;-1.384;2023-06-05T04:36:45;581.30;;;223.75;;
77944;SDS011;67142;47.404;-1.384;2023-06-05T04:39:15;589.58;;;226.60;;
77944;SDS011;67142;47.404;-1.384;2023-06-05T04:41:42;591.45;;;227.20;;
77944;SDS011;67142;47.404;-1.384;2023-06-05T04:44:10;607.42;;;235.88;;
77944;SDS011;67142;47.404;-1.384;2023-06-05T04:46:37;609.57;;;236.03;;
77944;SDS011;67142;47.404;-1.384;2023-06-05T04:49:04;606.92;;;235.80;;
77944;SDS011;67142;47.404;-1.384;2023-06-05T04:51:30;604.92;;;235.02;;
77944;SDS011;67142;47.404;-1.384;2023-06-05T04:53:56;599.45;;;229.95;;
77944;SDS011;67142;47.404;-1.384;2023-06-05T04:56:22;595.83;;;231.57;;
77944;SDS011;67142;47.404;-1.384;2023-06-05T04:58:49;579.43;;;224.37;;
77944;SDS011;67142;47.404;-1.384;2023-06-05T05:01:17;580.08;;;226.70;;
77944;SDS011;67142;47.404;-1.384;2023-06-05T05:03:43;575.08;;;223.15;;
77944;SDS011;67142;47.404;-1.384;2023-06-05T05:06:10;565.03;;;219.05;;
77944;SDS011;67142;47.404;-1.384;2023-06-05T05:08:39;577.92;;;225.68;;
77944;SDS011;67142;47.404;-1.384;2023-06-05T05:11:05;586.93;;;227.63;;
77944;SDS011;67142;47.404;-1.384;2023-06-05T05:13:31;577.67;;;223.68;;
77944;SDS011;67142;47.404;-1.384;2023-06-05T05:15:57;589.10;;;229.95;;
77944;SDS011;67142;47.404;-1.384;2023-06-05T05:18:23;576.72;;;222.88;;
77944;SDS011;67142;47.404;-1.384;2023-06-05T05:20:49;578.22;;;223.52;;
77944;SDS011;67142;47.404;-1.384;2023-06-05T05:23:16;586.07;;;226.20;;
77944;SDS011;67142;47.404;-1.384;2023-06-05T05:25:42;578.63;;;222.30;;
77944;SDS011;67142;47.404;-1.384;2023-06-05T05:28:08;579.72;;;223.80;;
77944;SDS011;67142;47.404;-1.384;2023-06-05T05:30:34;589.22;;;226.95;;
77944;SDS011;67142;47.404;-1.384;2023-06-05T05:33:00;589.13;;;225.98;;
77944;SDS011;67142;47.404;-1.384;2023-06-05T05:35:26;585.50;;;224.53;;
77944;SDS011;67142;47.404;-1.384;2023-06-05T05:37:52;575.65;;;218.65;;
77944;SDS011;67142;47.404;-1.384;2023-06-05T05:40:18;580.95;;;220.02;;
77944;SDS011;67142;47.404;-1.384;2023-06-05T05:42:45;581.33;;;221.40;;
77944;SDS011;67142;47.404;-1.384;2023-06-05T05:45:11;577.92;;;220.13;;
77944;SDS011;67142;47.404;-1.384;2023-06-05T05:47:37;578.87;;;220.40;;
77944;SDS011;67142;47.404;-1.384;2023-06-05T05:50:04;579.25;;;220.27;;
77944;SDS011;67142;47.404;-1.384;2023-06-05T05:52:30;580.33;;;221.70;;
77944;SDS011;67142;47.404;-1.384;2023-06-05T05:54:56;581.53;;;221.60;;
77944;SDS011;67142;47.404;-1.384;2023-06-05T05:57:23;592.03;;;225.27;;
77944;SDS011;67142;47.404;-1.384;2023-06-05T05:59:50;593.47;;;225.37;;
77944;SDS011;67142;47.404;-1.384;2023-06-05T06:02:16;595.70;;;227.25;;
77944;SDS011;67142;47.404;-1.384;2023-06-05T06:04:42;586.67;;;221.98;;
77944;SDS011;67142;47.404;-1.384;2023-06-05T06:07:12;588.88;;;224.73;;
77944;SDS011;67142;47.404;-1.384;2023-06-05T06:09:38;593.95;;;225.50;;
77944;SDS011;67142;47.404;-1.384;2023-06-05T06:12:05;596.13;;;226.27;;
77944;SDS011;67142;47.404;-1.384;2023-06-05T06:14:33;600.30;;;228.70;;
77944;SDS011;67142;47.404;-1.384;2023-06-05T06:16:59;605.72;;;232.73;;
77944;SDS011;67142;47.404;-1.384;2023-06-05T06:19:25;605.88;;;229.60;;
77944;SDS011;67142;47.404;-1.384;2023-06-05T06:21:52;605.28;;;231.27;;
77944;SDS011;67142;47.404;-1.384;2023-06-05T06:24:18;600.43;;;227.67;;
77944;SDS011;67142;47.404;-1.384;2023-06-05T06:26:48;598.65;;;226.77;;
77944;SDS011;67142;47.404;-1.384;2023-06-05T06:29:14;591.78;;;223.38;;
77944;SDS011;67142;47.404;-1.384;2023-06-05T06:31:41;590.08;;;222.60;;
77944;SDS011;67142;47.404;-1.384;2023-06-05T06:34:07;595.25;;;223.57;;
77944;SDS011;67142;47.404;-1.384;2023-06-05T06:36:35;593.33;;;221.07;;
77944;SDS011;67142;47.404;-1.384;2023-06-05T06:39:05;599.78;;;225.18;;
77944;SDS011;67142;47.404;-1.384;2023-06-05T06:41:32;603.53;;;226.70;;
77944;SDS011;67142;47.404;-1.384;2023-06-05T06:43:59;602.45;;;225.57;;
77944;SDS011;67142;47.404;-1.384;2023-06-05T06:46:25;598.70;;;223.60;;
77944;SDS011;67142;47.404;-1.384;2023-06-05T06:48:51;593.37;;;220.50;;
77944;SDS011;67142;47.404;-1.384;2023-06-05T06:51:17;593.30;;;221.38;;
77944;SDS011;67142;47.404;-1.384;2023-06-05T06:53:43;598.45;;;222.48;;
77944;SDS011;67142;47.404;-1.384;2023-06-05T06:56:10;591.28;;;220.13;;
77944;SDS011;67142;47.404;-1.384;2023-06-05T06:58:36;595.72;;;222.23;;
77944;SDS011;67142;47.404;-1.384;2023-06-05T07:01:02;592.27;;;221.87;;
77944;SDS011;67142;47.404;-1.384;2023-06-05T07:03:28;590.22;;;219.95;;
77944;SDS011;67142;47.404;-1.384;2023-06-05T07:05:54;594.47;;;221.57;;
77944;SDS011;67142;47.404;-1.384;2023-06-05T07:08:20;592.30;;;221.85;;
77944;SDS011;67142;47.404;-1.384;2023-06-05T07:10:46;592.08;;;221.93;;
77944;SDS011;67142;47.404;-1.384;2023-06-05T07:13:12;594.10;;;221.43;;
77944;SDS011;67142;47.404;-1.384;2023-06-05T07:15:38;609.83;;;226.63;;
77944;SDS011;67142;47.404;-1.384;2023-06-05T07:18:04;614.58;;;230.52;;
77944;SDS011;67142;47.404;-1.384;2023-06-05T07:20:31;609.85;;;229.00;;
77944;SDS011;67142;47.404;-1.384;2023-06-05T07:22:57;608.00;;;226.10;;
77944;SDS011;67142;47.404;-1.384;2023-06-05T07:25:24;604.10;;;225.47;;
77944;SDS011;67142;47.404;-1.384;2023-06-05T07:27:50;604.38;;;224.48;;
77944;SDS011;67142;47.404;-1.384;2023-06-05T07:30:16;602.65;;;224.07;;
77944;SDS011;67142;47.404;-1.384;2023-06-05T07:32:42;600.00;;;220.75;;
77944;SDS011;67142;47.404;-1.384;2023-06-05T07:35:10;596.28;;;220.05;;
77944;SDS011;67142;47.404;-1.384;2023-06-05T07:37:36;613.17;;;227.63;;
77944;SDS011;67142;47.404;-1.384;2023-06-05T07:40:02;613.15;;;226.52;;
77944;SDS011;67142;47.404;-1.384;2023-06-05T07:42:28;611.65;;;226.50;;
77944;SDS011;67142;47.404;-1.384;2023-06-05T07:44:54;605.15;;;222.00;;
77944;SDS011;67142;47.404;-1.384;2023-06-05T07:47:20;602.85;;;222.30;;
77944;SDS011;67142;47.404;-1.384;2023-06-05T07:49:55;596.33;;;218.87;;
77944;SDS011;67142;47.404;-1.384;2023-06-05T07:52:22;600.17;;;220.00;;
77944;SDS011;67142;47.404;-1.384;2023-06-05T07:54:48;601.45;;;221.98;;
77944;SDS011;67142;47.404;-1.384;2023-06-05T07:57:14;599.50;;;220.77;;
77944;SDS011;67142;47.404;-1.384;2023-06-05T07:59:40;601.42;;;220.05;;
77944;SDS011;67142;47.404;-1.384;2023-06-05T08:02:06;598.10;;;219.87;;
77944;SDS011;67142;47.404;-1.384;2023-06-05T08:04:32;601.28;;;221.48;;
77944;SDS011;67142;47.404;-1.384;2023-06-05T08:06:58;598.40;;;217.32;;
77944;SDS011;67142;47.404;-1.384;2023-06-05T08:09:24;601.60;;;221.48;;
77944;SDS011;67142;47.404;-1.384;2023-06-05T08:11:50;602.25;;;220.75;;
77944;SDS011;67142;47.404;-1.384;2023-06-05T08:14:16;598.40;;;218.30;;
77944;SDS011;67142;47.404;-1.384;2023-06-05T08:16:42;600.78;;;219.57;;
77944;SDS011;67142;47.404;-1.384;2023-06-05T08:19:09;601.55;;;221.25;;
77944;SDS011;67142;47.404;-1.384;2023-06-05T08:21:35;598.92;;;217.93;;
77944;SDS011;67142;47.404;-1.384;2023-06-05T08:24:04;601.30;;;218.85;;
77944;SDS011;67142;47.404;-1.384;2023-06-05T08:26:31;600.83;;;218.37;;
77944;SDS011;67142;47.404;-1.384;2023-06-05T08:28:57;597.72;;;216.98;;
77944;SDS011;67142;47.404;-1.384;2023-06-05T08:31:23;603.00;;;220.93;;
77944;SDS011;67142;47.404;-1.384;2023-06-05T08:33:49;599.05;;;217.20;;
77944;SDS011;67142;47.404;-1.384;2023-06-05T08:36:16;603.05;;;219.73;;
77944;SDS011;67142;47.404;-1.384;2023-06-05T08:38:42;602.53;;;218.00;;
77944;SDS011;67142;47.404;-1.384;2023-06-05T08:41:09;600.40;;;217.57;;
77944;SDS011;67142;47.404;-1.384;2023-06-05T08:43:38;601.90;;;218.63;;
77944;SDS011;67142;47.404;-1.384;2023-06-05T08:46:06;605.25;;;221.38;;
77944;SDS011;67142;47.404;-1.384;2023-06-05T08:48:36;606.75;;;221.07;;
77944;SDS011;67142;47.404;-1.384;2023-06-05T08:51:03;600.23;;;216.57;;
77944;SDS011;67142;47.404;-1.384;2023-06-05T08:53:31;596.72;;;215.52;;
77944;SDS011;67142;47.404;-1.384;2023-06-05T08:55:59;596.00;;;215.45;;
77944;SDS011;67142;47.404;-1.384;2023-06-05T08:58:27;598.60;;;214.70;;
77944;SDS011;67142;47.404;-1.384;2023-06-05T09:00:53;609.88;;;221.25;;
77944;SDS011;67142;47.404;-1.384;2023-06-05T09:03:19;604.20;;;216.67;;
77944;SDS011;67142;47.404;-1.384;2023-06-05T09:05:48;600.78;;;215.18;;
77944;SDS011;67142;47.404;-1.384;2023-06-05T09:08:17;609.83;;;219.45;;
77944;SDS011;67142;47.404;-1.384;2023-06-05T09:10:44;607.53;;;217.23;;
77944;SDS011;67142;47.404;-1.384;2023-06-05T09:13:11;607.45;;;217.07;;
77944;SDS011;67142;47.404;-1.384;2023-06-05T09:15:37;601.37;;;214.90;;
77944;SDS011;67142;47.404;-1.384;2023-06-05T09:18:12;596.38;;;210.45;;
77944;SDS011;67142;47.404;-1.384;2023-06-05T09:20:41;605.55;;;217.77;;
77944;SDS011;67142;47.404;-1.384;2023-06-05T09:23:27;612.28;;;218.05;;
77944;SDS011;67142;47.404;-1.384;2023-06-05T09:25:54;615.60;;;221.80;;
77944;SDS011;67142;47.404;-1.384;2023-06-05T09:28:20;617.60;;;221.97;;
77944;SDS011;67142;47.404;-1.384;2023-06-05T09:33:22;617.85;;;223.13;;
77944;SDS011;67142;47.404;-1.384;2023-06-05T09:36:01;650.15;;;232.45;;
77944;SDS011;67142;47.404;-1.384;2023-06-05T09:38:28;645.00;;;229.18;;
77944;SDS011;67142;47.404;-1.384;2023-06-05T09:41:01;642.43;;;228.73;;
77944;SDS011;67142;47.404;-1.384;2023-06-05T09:43:27;629.08;;;223.07;;
77944;SDS011;67142;47.404;-1.384;2023-06-05T09:45:53;637.22;;;227.95;;
77944;SDS011;67142;47.404;-1.384;2023-06-05T09:48:19;637.50;;;225.32;;
77944;SDS011;67142;47.404;-1.384;2023-06-05T09:50:45;613.45;;;216.70;;
77944;SDS011;67142;47.404;-1.384;2023-06-05T09:53:12;601.50;;;211.83;;
77944;SDS011;67142;47.404;-1.384;2023-06-05T09:55:43;606.28;;;214.85;;
77944;SDS011;67142;47.404;-1.384;2023-06-05T09:58:11;624.45;;;220.93;;
77944;SDS011;67142;47.404;-1.384;2023-06-05T10:00:39;606.45;;;212.70;;
77944;SDS011;67142;47.404;-1.384;2023-06-05T10:03:08;619.28;;;219.60;;
77944;SDS011;67142;47.404;-1.384;2023-06-05T10:05:37;603.97;;;211.50;;
77944;SDS011;67142;47.404;-1.384;2023-06-05T10:08:04;605.70;;;212.95;;
77944;SDS011;67142;47.404;-1.384;2023-06-05T10:10:30;606.47;;;213.38;;
77944;SDS011;67142;47.404;-1.384;2023-06-05T10:12:56;595.75;;;208.68;;
77944;SDS011;67142;47.404;-1.384;2023-06-05T10:15:24;590.15;;;206.90;;
77944;SDS011;67142;47.404;-1.384;2023-06-05T10:17:50;590.37;;;205.83;;
77944;SDS011;67142;47.404;-1.384;2023-06-05T10:20:16;590.95;;;206.10;;
77944;SDS011;67142;47.404;-1.384;2023-06-05T10:22:42;590.60;;;206.48;;
77944;SDS011;67142;47.404;-1.384;2023-06-05T10:25:09;590.38;;;205.60;;
77944;SDS011;67142;47.404;-1.384;2023-06-05T10:40:28;583.22;;;203.75;;
77944;SDS011;67142;47.404;-1.384;2023-06-05T10:42:54;586.30;;;203.87;;
77944;SDS011;67142;47.404;-1.384;2023-06-05T10:45:41;582.97;;;202.77;;
77944;SDS011;67142;47.404;-1.384;2023-06-05T10:48:07;585.75;;;203.48;;
77944;SDS011;67142;47.404;-1.384;2023-06-05T10:50:33;581.22;;;201.35;;
77944;SDS011;67142;47.404;-1.384;2023-06-05T10:52:59;582.25;;;202.18;;
77944;SDS011;67142;47.404;-1.384;2023-06-05T10:55:26;588.13;;;204.57;;
77944;SDS011;67142;47.404;-1.384;2023-06-05T11:00:28;587.85;;;205.35;;
77944;SDS011;67142;47.404;-1.384;2023-06-05T11:02:54;583.92;;;203.40;;
77944;SDS011;67142;47.404;-1.384;2023-06-05T11:05:20;582.42;;;200.35;;
77944;SDS011;67142;47.404;-1.384;2023-06-05T11:07:46;580.00;;;199.87;;
77944;SDS011;67142;47.404;-1.384;2023-06-05T11:10:17;580.70;;;199.93;;
77944;SDS011;67142;47.404;-1.384;2023-06-05T11:15:12;595.42;;;207.40;;
77944;SDS011;67142;47.404;-1.384;2023-06-05T11:17:40;595.65;;;206.95;;
77944;SDS011;67142;47.404;-1.384;2023-06-05T11:20:07;593.77;;;204.70;;
77944;SDS011;67142;47.404;-1.384;2023-06-05T11:28:06;592.75;;;205.20;;
77944;SDS011;67142;47.404;-1.384;2023-06-05T11:30:43;578.65;;;199.65;;
77944;SDS011;67142;47.404;-1.384;2023-06-05T11:33:10;587.00;;;201.43;;
77944;SDS011;67142;47.404;-1.384;2023-06-05T11:35:37;586.10;;;202.85;;
77944;SDS011;67142;47.404;-1.384;2023-06-05T11:38:07;586.80;;;203.65;;
77944;SDS011;67142;47.404;-1.384;2023-06-05T11:40:33;562.38;;;193.63;;
77944;SDS011;67142;47.404;-1.384;2023-06-05T11:43:03;544.08;;;188.32;;
77944;SDS011;67142;47.404;-1.384;2023-06-05T11:45:30;554.73;;;191.00;;
77944;SDS011;67142;47.404;-1.384;2023-06-05T11:50:31;539.97;;;186.45;;
77944;SDS011;67142;47.404;-1.384;2023-06-05T11:53:06;533.65;;;183.75;;
77944;SDS011;67142;47.404;-1.384;2023-06-05T11:55:33;533.00;;;183.13;;
77944;SDS011;67142;47.404;-1.384;2023-06-05T11:58:22;573.90;;;196.57;;
77944;SDS011;67142;47.404;-1.384;2023-06-05T12:00:49;577.00;;;198.75;;
77944;SDS011;67142;47.404;-1.384;2023-06-05T12:03:19;573.58;;;198.98;;
77944;SDS011;67142;47.404;-1.384;2023-06-05T12:05:46;573.63;;;197.88;;
77944;SDS011;67142;47.404;-1.384;2023-06-05T12:08:25;570.10;;;196.50;;
77944;SDS011;67142;47.404;-1.384;2023-06-05T12:10:53;569.53;;;196.70;;
77944;SDS011;67142;47.404;-1.384;2023-06-05T12:13:19;567.13;;;195.52;;
77944;SDS011;67142;47.404;-1.384;2023-06-05T12:16:06;571.42;;;197.55;;
77944;SDS011;67142;47.404;-1.384;2023-06-05T12:18:32;566.78;;;195.93;;
77944;SDS011;67142;47.404;-1.384;2023-06-05T12:20:58;565.55;;;196.27;;
77944;SDS011;67142;47.404;-1.384;2023-06-05T12:23:24;565.43;;;194.67;;
77944;SDS011;67142;47.404;-1.384;2023-06-05T12:26:03;564.38;;;194.07;;
77944;SDS011;67142;47.404;-1.384;2023-06-05T12:28:29;568.25;;;197.98;;
77944;SDS011;67142;47.404;-1.384;2023-06-05T12:30:56;563.55;;;195.25;;
77944;SDS011;67142;47.404;-1.384;2023-06-05T12:33:22;562.67;;;193.82;;
77944;SDS011;67142;47.404;-1.384;2023-06-05T12:36:08;561.77;;;191.33;;
77944;SDS011;67142;47.404;-1.384;2023-06-05T12:38:38;565.92;;;195.88;;
77944;SDS011;67142;47.404;-1.384;2023-06-05T12:41:05;565.45;;;195.25;;
77944;SDS011;67142;47.404;-1.384;2023-06-05T12:43:34;565.22;;;194.15;;
77944;SDS011;67142;47.404;-1.384;2023-06-05T12:46:00;563.60;;;194.75;;
77944;SDS011;67142;47.404;-1.384;2023-06-05T12:48:27;561.30;;;191.80;;
77944;SDS011;67142;47.404;-1.384;2023-06-05T12:50:53;561.25;;;193.48;;
77944;SDS011;67142;47.404;-1.384;2023-06-05T12:53:19;561.60;;;194.23;;
77944;SDS011;67142;47.404;-1.384;2023-06-05T12:55:46;558.65;;;192.20;;
77944;SDS011;67142;47.404;-1.384;2023-06-05T12:58:11;555.88;;;191.02;;
77944;SDS011;67142;47.404;-1.384;2023-06-05T13:00:38;556.83;;;191.43;;
77944;SDS011;67142;47.404;-1.384;2023-06-05T13:03:04;556.38;;;193.10;;
77944;SDS011;67142;47.404;-1.384;2023-06-05T13:05:30;561.22;;;194.02;;
77944;SDS011;67142;47.404;-1.384;2023-06-05T13:07:57;553.75;;;190.52;;
77944;SDS011;67142;47.404;-1.384;2023-06-05T13:10:23;553.20;;;191.52;;
77944;SDS011;67142;47.404;-1.384;2023-06-05T13:12:49;556.10;;;190.97;;
77944;SDS011;67142;47.404;-1.384;2023-06-05T13:15:15;554.20;;;191.43;;
77944;SDS011;67142;47.404;-1.384;2023-06-05T13:17:41;553.60;;;192.70;;
77944;SDS011;67142;47.404;-1.384;2023-06-05T13:20:08;553.83;;;192.68;;
77944;SDS011;67142;47.404;-1.384;2023-06-05T13:22:38;550.80;;;192.63;;
77944;SDS011;67142;47.404;-1.384;2023-06-05T13:25:07;547.50;;;189.70;;
77944;SDS011;67142;47.404;-1.384;2023-06-05T13:27:33;545.40;;;188.88;;
77944;SDS011;67142;47.404;-1.384;2023-06-05T13:29:59;548.78;;;191.52;;
77944;SDS011;67142;47.404;-1.384;2023-06-05T13:32:25;547.05;;;189.82;;
77944;SDS011;67142;47.404;-1.384;2023-06-05T13:34:51;545.13;;;189.85;;
77944;SDS011;67142;47.404;-1.384;2023-06-05T13:37:18;545.23;;;187.90;;
77944;SDS011;67142;47.404;-1.384;2023-06-05T13:39:45;550.95;;;191.10;;
77944;SDS011;67142;47.404;-1.384;2023-06-05T13:42:11;555.70;;;194.07;;
77944;SDS011;67142;47.404;-1.384;2023-06-05T13:44:37;551.50;;;192.02;;
77944;SDS011;67142;47.404;-1.384;2023-06-05T13:47:03;547.28;;;189.55;;
77944;SDS011;67142;47.404;-1.384;2023-06-05T13:49:29;545.50;;;188.20;;
77944;SDS011;67142;47.404;-1.384;2023-06-05T13:51:59;544.97;;;188.93;;
77944;SDS011;67142;47.404;-1.384;2023-06-05T13:54:25;542.05;;;186.90;;
77944;SDS011;67142;47.404;-1.384;2023-06-05T13:56:50;547.00;;;188.40;;
77944;SDS011;67142;47.404;-1.384;2023-06-05T13:59:17;549.92;;;189.88;;
77944;SDS011;67142;47.404;-1.384;2023-06-05T14:01:43;555.43;;;191.23;;
77944;SDS011;67142;47.404;-1.384;2023-06-05T14:04:09;553.95;;;191.88;;
77944;SDS011;67142;47.404;-1.384;2023-06-05T14:06:35;532.63;;;183.50;;
77944;SDS011;67142;47.404;-1.384;2023-06-05T14:09:04;524.53;;;181.57;;
77944;SDS011;67142;47.404;-1.384;2023-06-05T14:11:30;521.45;;;179.63;;
77944;SDS011;67142;47.404;-1.384;2023-06-05T14:13:56;518.33;;;177.50;;
77944;SDS011;67142;47.404;-1.384;2023-06-05T14:16:22;516.45;;;177.45;;
77944;SDS011;67142;47.404;-1.384;2023-06-05T14:18:48;517.72;;;179.57;;
77944;SDS011;67142;47.404;-1.384;2023-06-05T14:21:14;517.03;;;178.98;;